»·PEaware :: N123KT KSNA-KSAN

N123KT :: KSNA-KSAN

FLIGHT INFORMATION

Flight Status: Arrived
Operator: Privately registered:
United States
More flights under this callsign
Pilot: Anonymous 475 (475)
Aircraft: CESSNA 172 SKYHAWK
(C172)
More flights by this aircraft type
Origin: KSNA John Wayne-Orange Co
United States
Destination: KSAN San Diego Intl-Lindbergh
United States
More flights between these airports :: More routes between these airports
Route: V23 MZB
File this flight plan on PilotEdge
Remarks: TEC route CSTP31
Altitude:
(Current/Filed)
5,000ft
Speed:
(Current/Filed)
120kts
Departed: 02-Dec-19 12:15 PM
Arrived: 02-Dec-19 01:02 PM
Distance/Time
Traveled:
66nm/0:47
Distance/Time
To Go:
Arrived

Flight Plot

Page will automatically refresh every two minutes.


Map Options




Map Legend


Flown Route
Filed Route
Departure Airport
Arrival Airport
Navaid (VOR, NDB)
Fix

Horizontal Profiles

Position Reports

Time Latitude Longitude Heading Altitude Ground
Speed
02-Dec-19 12:05 33.676080 -117.870909 219 60ft 0kts
02-Dec-19 12:05 33.676080 -117.870909 219 60ft 0kts
02-Dec-19 12:06 33.676080 -117.870909 219 60ft 0kts
02-Dec-19 12:07 33.676080 -117.870909 219 60ft 0kts
02-Dec-19 12:08 33.676080 -117.870909 219 60ft 0kts
02-Dec-19 12:09 33.676080 -117.870909 219 60ft 0kts
02-Dec-19 12:10 33.675681 -117.870403 110 60ft 5kts
02-Dec-19 12:11 33.677601 -117.869127 28 60ft 13kts
02-Dec-19 12:12 33.680775 -117.867332 29 60ft 12kts
02-Dec-19 12:13 33.681216 -117.866452 116 60ft 0kts
02-Dec-19 12:14 33.673441 -117.870240 204 164ft 82kts
02-Dec-19 12:15 33.651645 -117.878258 186 1084ft 79kts
02-Dec-19 12:16 33.631403 -117.881124 186 1978ft 68kts
02-Dec-19 12:17 33.613186 -117.883550 185 2660ft 68kts
02-Dec-19 12:18 33.592885 -117.886242 185 3285ft 79kts
02-Dec-19 12:19 33.570696 -117.889411 186 3971ft 80kts
02-Dec-19 12:20 33.551923 -117.884481 114 4658ft 76kts
02-Dec-19 12:21 33.544398 -117.857670 111 4979ft 100kts
02-Dec-19 12:22 33.534568 -117.823503 111 4973ft 112kts
02-Dec-19 12:23 33.524266 -117.787839 111 4971ft 113kts
02-Dec-19 12:24 33.513953 -117.752098 111 4974ft 113kts
02-Dec-19 12:25 33.498723 -117.719701 133 4970ft 111kts
02-Dec-19 12:26 33.476872 -117.693431 137 4973ft 111kts
02-Dec-19 12:27 33.454596 -117.667221 137 4971ft 111kts
02-Dec-19 12:28 33.432305 -117.641217 137 4974ft 111kts
02-Dec-19 12:29 33.410058 -117.615196 137 4972ft 112kts
02-Dec-19 12:30 33.387814 -117.589198 137 4970ft 112kts
02-Dec-19 12:31 33.365505 -117.563145 137 5000ft 110kts
02-Dec-19 12:32 33.343449 -117.537315 137 5006ft 112kts
02-Dec-19 12:33 33.320983 -117.511204 137 5007ft 113kts
02-Dec-19 12:34 33.298431 -117.484885 136 5010ft 113kts
02-Dec-19 12:35 33.275922 -117.458532 136 5008ft 113kts
02-Dec-19 12:36 33.253380 -117.432344 137 5008ft 112kts
02-Dec-19 12:37 33.227710 -117.412397 160 5008ft 111kts
02-Dec-19 12:38 33.198445 -117.399864 160 5007ft 111kts
02-Dec-19 12:39 33.169073 -117.387434 160 5007ft 112kts
02-Dec-19 12:40 33.139584 -117.375025 161 5008ft 112kts
02-Dec-19 12:41 33.110189 -117.362615 160 5006ft 113kts
02-Dec-19 12:42 33.080694 -117.350285 161 5008ft 112kts
02-Dec-19 12:43 33.051202 -117.337911 161 5008ft 112kts
02-Dec-19 12:44 33.021707 -117.325543 161 5008ft 112kts
02-Dec-19 12:45 32.992215 -117.313204 161 5007ft 112kts
02-Dec-19 12:46 32.962815 -117.300797 161 5007ft 112kts
02-Dec-19 12:47 32.933331 -117.288456 161 5008ft 112kts
02-Dec-19 12:48 32.903771 -117.276096 162 5009ft 112kts
02-Dec-19 12:49 32.874303 -117.263804 162 5009ft 112kts
02-Dec-19 12:50 32.851075 -117.241527 121 4992ft 116kts
02-Dec-19 12:51 32.833232 -117.210524 151 4984ft 112kts
02-Dec-19 12:52 32.805329 -117.193323 154 4982ft 112kts
02-Dec-19 12:53 32.777346 -117.176263 154 4982ft 113kts
02-Dec-19 12:54 32.750134 -117.158707 132 4353ft 107kts
02-Dec-19 12:55 32.741506 -117.125834 106 3351ft 104kts
02-Dec-19 12:56 32.728399 -117.098239 178 2338ft 100kts
02-Dec-19 12:57 32.710634 -117.114289 293 1345ft 96kts
02-Dec-19 12:58 32.720965 -117.137744 284 896ft 74kts
02-Dec-19 12:59 32.726497 -117.160249 284 440ft 66kts
02-Dec-19 13:00 32.731524 -117.181283 283 42ft 63kts
02-Dec-19 13:01 32.734478 -117.190912 29 17ft 11kts
02-Dec-19 13:02 32.735286 -117.189252 188 18ft 0kts

Navigation Log

Ident Type
Flight plan parsing failed, navigation log unavailable